Time;durP1;ratioP1;P1;durP2;ratioP2;P2;SDS_P1;SDS_P2;PMS_P1;PMS_P2;Temp;Humidity;BMP_temperature;BMP_pressure;BME280_temperature;BME280_humidity;BME280_pressure;Samples;Min_cycle;Max_cycle;Signal;HPM_P1;HPM_P2
2022/04/14 00:01:50;;;;;;;7.00;5.07;;;11.80;99.90;;;;;;5079327;28;20701;-77
2022/04/14 00:04:17;;;;;;;5.70;4.60;;;11.70;99.90;;;;;;5073500;28;20718;-77
2022/04/14 00:06:44;;;;;;;4.93;4.40;;;11.70;99.90;;;;;;5076192;28;20217;-77
2022/04/14 00:09:11;;;;;;;5.50;4.43;;;11.70;99.90;;;;;;5077505;28;20544;-77
2022/04/14 00:11:39;;;;;;;5.10;4.33;;;11.60;99.90;;;;;;5076901;28;20639;-78
2022/04/14 00:14:06;;;;;;;6.27;4.50;;;11.60;99.90;;;;;;5075635;28;20225;-77
2022/04/14 00:16:34;;;;;;;5.57;4.20;;;11.50;99.90;;;;;;5079591;28;20300;-77
2022/04/14 00:19:02;;;;;;;7.63;5.07;;;11.40;99.90;;;;;;5079071;28;20230;-78
2022/04/14 00:21:29;;;;;;;5.80;4.50;;;11.40;99.90;;;;;;5081355;28;20202;-77
2022/04/14 00:23:56;;;;;;;5.90;5.03;;;11.30;99.90;;;;;;5078669;28;20578;-78
2022/04/14 00:26:23;;;;;;;7.47;5.60;;;11.20;99.90;;;;;;5080526;28;20246;-77
2022/04/14 00:28:50;;;;;;;7.87;5.47;;;11.20;99.90;;;;;;5068343;28;20201;-77
2022/04/14 00:31:17;;;;;;;7.37;5.20;;;11.20;99.90;;;;;;5081639;28;20233;-77
2022/04/14 00:33:44;;;;;;;7.57;4.93;;;11.20;99.90;;;;;;5073100;28;20318;-77
2022/04/14 00:36:12;;;;;;;7.57;5.27;;;11.20;99.90;;;;;;5076455;28;20278;-77
2022/04/14 00:38:39;;;;;;;7.07;5.47;;;11.10;99.90;;;;;;5078800;28;20194;-77
2022/04/14 00:41:06;;;;;;;6.23;5.40;;;11.00;99.90;;;;;;5078781;28;20215;-77
2022/04/14 00:43:34;;;;;;;6.03;5.30;;;11.00;99.90;;;;;;5070754;28;20246;-77
2022/04/14 00:46:02;;;;;;;7.70;6.17;;;10.90;99.90;;;;;;5073183;28;20722;-77
2022/04/14 00:48:30;;;;;;;7.93;6.23;;;10.80;99.90;;;;;;5079930;28;20231;-77
2022/04/14 00:50:58;;;;;;;7.20;5.50;;;10.80;99.90;;;;;;5077811;28;20225;-78
2022/04/14 00:53:26;;;;;;;6.03;5.37;;;10.70;99.90;;;;;;5081138;28;20217;-77
2022/04/14 00:55:53;;;;;;;4.93;4.43;;;10.60;99.90;;;;;;5082109;28;20267;-77
2022/04/14 00:58:20;;;;;;;5.60;4.93;;;10.60;99.90;;;;;;5082442;28;20205;-77
2022/04/14 01:00:47;;;;;;;5.63;4.90;;;10.60;99.90;;;;;;5077490;28;20199;-77
2022/04/14 01:03:15;;;;;;;6.20;4.90;;;10.60;99.90;;;;;;5077181;28;20305;-77
2022/04/14 01:05:45;;;;;;;5.23;4.73;;;10.60;99.90;;;;;;5083219;28;20199;-77
2022/04/14 01:08:16;;;;;;;5.23;4.73;;;10.60;99.90;;;;;;5082171;28;20659;-77
2022/04/14 01:10:47;;;;;;;6.10;5.37;;;10.60;99.90;;;;;;5074617;28;20226;-77
2022/04/14 01:13:15;;;;;;;6.97;5.37;;;10.60;99.90;;;;;;5082456;28;20214;-79
2022/04/14 01:15:43;;;;;;;6.83;5.57;;;10.70;99.90;;;;;;5084010;28;20191;-77
2022/04/14 01:18:10;;;;;;;11.07;6.90;;;10.80;99.90;;;;;;5074918;28;20284;-77
2022/04/14 01:20:38;;;;;;;7.70;5.27;;;10.80;99.90;;;;;;5076640;28;20198;-77
2022/04/14 01:23:06;;;;;;;5.37;4.87;;;10.80;99.90;;;;;;5079829;28;20310;-77
2022/04/14 01:25:35;;;;;;;5.77;5.07;;;10.80;99.90;;;;;;5078267;28;20256;-77
2022/04/14 01:28:03;;;;;;;5.93;5.33;;;10.80;99.90;;;;;;5078654;28;20282;-78
2022/04/14 01:30:31;;;;;;;6.90;5.70;;;10.70;99.90;;;;;;5083928;28;20212;-77
2022/04/14 01:32:58;;;;;;;9.80;6.03;;;10.70;99.90;;;;;;5081840;28;20317;-77
2022/04/14 01:35:25;;;;;;;6.97;5.70;;;10.60;99.90;;;;;;5081654;28;20195;-77
2022/04/14 01:37:52;;;;;;;10.13;5.93;;;10.60;99.90;;;;;;5081168;28;20283;-77
2022/04/14 01:40:19;;;;;;;7.80;5.87;;;10.60;99.90;;;;;;5073532;28;20235;-77
2022/04/14 01:42:47;;;;;;;6.50;5.77;;;10.50;99.90;;;;;;5076056;28;20219;-77
2022/04/14 01:45:14;;;;;;;6.00;5.33;;;10.50;99.90;;;;;;5083053;28;20207;-77
2022/04/14 01:47:42;;;;;;;6.20;5.27;;;10.40;99.90;;;;;;5070637;28;20235;-77
2022/04/14 01:50:12;;;;;;;7.23;5.20;;;10.40;99.90;;;;;;5084909;28;20194;-77
2022/04/14 01:52:39;;;;;;;10.23;5.77;;;10.30;99.90;;;;;;5071850;28;20285;-77
2022/04/14 01:55:08;;;;;;;7.40;5.73;;;10.20;99.90;;;;;;5079333;28;20678;-77
2022/04/14 01:57:35;;;;;;;7.73;5.90;;;10.20;99.90;;;;;;5082688;28;20213;-77
2022/04/14 02:00:07;;;;;;;8.87;6.70;;;10.20;99.90;;;;;;5081382;28;20195;-77
2022/04/14 02:02:34;;;;;;;7.13;4.83;;;10.20;99.90;;;;;;5072759;28;20191;-78
2022/04/14 02:05:01;;;;;;;6.33;5.00;;;10.20;99.90;;;;;;5076953;28;20199;-77
2022/04/14 02:07:28;;;;;;;5.87;4.70;;;10.20;99.90;;;;;;5080054;28;20284;-77
2022/04/14 02:09:56;;;;;;;7.77;5.03;;;10.20;99.90;;;;;;5074538;28;20673;-77
2022/04/14 02:12:24;;;;;;;6.80;4.47;;;10.30;99.90;;;;;;5076761;28;20194;-77
2022/04/14 02:14:51;;;;;;;6.13;4.50;;;10.30;99.90;;;;;;5083547;28;20205;-77
2022/04/14 02:17:20;;;;;;;4.97;4.10;;;10.30;99.90;;;;;;5079282;28;20297;-77
2022/04/14 02:19:47;;;;;;;5.60;3.90;;;10.30;99.90;;;;;;5081805;28;20201;-78
2022/04/14 02:22:14;;;;;;;4.70;4.20;;;10.30;99.90;;;;;;5084687;28;20202;-77
2022/04/14 02:24:41;;;;;;;6.03;4.17;;;10.30;99.90;;;;;;5075315;28;20210;-77
2022/04/14 02:27:09;;;;;;;5.37;3.80;;;10.30;99.90;;;;;;5077705;28;20218;-77
2022/04/14 02:29:35;;;;;;;4.17;3.77;;;10.30;99.90;;;;;;5081121;28;20837;-77
2022/04/14 02:32:03;;;;;;;5.77;4.20;;;10.30;99.90;;;;;;5080295;28;20623;-77
2022/04/14 02:34:32;;;;;;;5.23;4.17;;;10.20;99.90;;;;;;5083121;28;20233;-78
2022/04/14 02:36:59;;;;;;;6.37;4.23;;;10.20;99.90;;;;;;5075529;28;20200;-77
2022/04/14 02:39:25;;;;;;;5.67;4.37;;;10.20;99.90;;;;;;5076242;28;20296;-78
2022/04/14 02:41:53;;;;;;;5.77;4.77;;;10.10;99.90;;;;;;5073106;28;20205;-77
2022/04/14 02:44:20;;;;;;;5.50;4.67;;;10.10;99.90;;;;;;5069877;28;20308;-77
2022/04/14 02:46:46;;;;;;;5.10;4.20;;;10.10;99.90;;;;;;5072858;28;20215;-77
2022/04/14 02:49:13;;;;;;;6.07;4.50;;;10.00;99.90;;;;;;5070133;28;20198;-77
2022/04/14 02:51:42;;;;;;;6.40;4.53;;;10.00;99.90;;;;;;5072556;28;20203;-77
2022/04/14 02:54:09;;;;;;;5.77;4.37;;;9.90;99.90;;;;;;5080372;28;20242;-77
2022/04/14 02:56:36;;;;;;;6.77;4.30;;;9.90;99.90;;;;;;5080764;28;20694;-77
2022/04/14 02:59:02;;;;;;;5.53;4.27;;;9.90;99.90;;;;;;5076873;28;20198;-77
2022/04/14 03:01:30;;;;;;;5.17;4.03;;;9.80;99.90;;;;;;5077850;28;20190;-77
2022/04/14 03:03:57;;;;;;;7.33;4.60;;;9.80;99.90;;;;;;5078399;28;20214;-76
2022/04/14 03:06:24;;;;;;;4.83;4.20;;;9.70;99.90;;;;;;5075184;28;20206;-80
2022/04/14 03:08:52;;;;;;;5.00;4.50;;;9.60;99.90;;;;;;5080177;28;20285;-80
2022/04/14 03:11:19;;;;;;;7.70;5.60;;;9.60;99.90;;;;;;5079906;28;20567;-80
2022/04/14 03:13:46;;;;;;;7.03;5.97;;;9.50;99.90;;;;;;5079548;28;20633;-83
2022/04/14 03:16:13;;;;;;;9.57;5.63;;;9.50;99.90;;;;;;5073723;28;20656;-81
2022/04/14 03:18:41;;;;;;;9.47;5.97;;;9.40;99.90;;;;;;5075757;28;20742;-82
2022/04/14 03:21:11;;;;;;;6.73;5.67;;;9.40;99.90;;;;;;5082256;28;20223;-81
2022/04/14 03:23:39;;;;;;;7.83;5.27;;;9.40;99.90;;;;;;5067158;28;20221;-79
2022/04/14 03:26:08;;;;;;;6.53;4.03;;;9.40;99.90;;;;;;5083632;28;20221;-78
2022/04/14 03:28:36;;;;;;;7.07;4.37;;;9.40;99.90;;;;;;5077505;28;20217;-78
2022/04/14 03:31:04;;;;;;;6.80;4.30;;;9.40;99.90;;;;;;5075987;28;20458;-78
2022/04/14 03:33:31;;;;;;;6.03;4.23;;;9.30;99.90;;;;;;5078610;28;20666;-78
2022/04/14 03:35:58;;;;;;;6.00;4.30;;;9.30;99.90;;;;;;5079457;28;20186;-78
2022/04/14 03:38:25;;;;;;;9.43;4.70;;;9.20;99.90;;;;;;5081150;28;20198;-78
2022/04/14 03:40:52;;;;;;;7.57;4.90;;;9.20;99.90;;;;;;5080188;28;20207;-77
2022/04/14 03:43:21;;;;;;;9.80;5.43;;;9.10;99.90;;;;;;5081951;28;20228;-77
2022/04/14 03:45:48;;;;;;;8.50;5.73;;;9.10;99.90;;;;;;5070297;28;20296;-78
2022/04/14 03:48:21;;;;;;;5.83;5.20;;;9.10;99.90;;;;;;5074796;28;20586;-78
2022/04/14 03:50:48;;;;;;;8.37;6.20;;;9.10;99.90;;;;;;5082509;28;20194;-78
2022/04/14 03:53:16;;;;;;;9.97;5.93;;;9.10;99.90;;;;;;5076368;28;20217;-78
2022/04/14 03:55:43;;;;;;;8.10;6.10;;;9.10;99.90;;;;;;5079774;28;20917;-77
2022/04/14 03:58:10;;;;;;;8.03;5.93;;;9.10;99.90;;;;;;5079309;28;20565;-78
2022/04/14 04:00:39;;;;;;;7.47;5.67;;;9.10;99.90;;;;;;5092197;28;20289;-78
2022/04/14 04:03:08;;;;;;;8.53;5.73;;;9.00;99.90;;;;;;5081433;28;20213;-78
2022/04/14 04:05:35;;;;;;;9.53;5.80;;;9.00;99.90;;;;;;5074715;28;20193;-78
2022/04/14 04:08:03;;;;;;;7.90;6.50;;;9.00;99.90;;;;;;5082178;28;20198;-78
2022/04/14 04:10:29;;;;;;;7.53;6.03;;;9.00;99.90;;;;;;5077111;28;20194;-78
2022/04/14 04:12:56;;;;;;;8.50;6.13;;;8.90;99.90;;;;;;5079517;28;20223;-78
2022/04/14 04:15:24;;;;;;;6.57;5.87;;;8.90;99.90;;;;;;5077194;28;20655;-78
2022/04/14 04:17:52;;;;;;;6.77;5.47;;;8.90;99.90;;;;;;5079283;28;20670;-78
2022/04/14 04:20:20;;;;;;;8.03;5.50;;;8.90;99.90;;;;;;5080264;28;20650;-78
2022/04/14 04:22:47;;;;;;;11.20;6.10;;;8.90;99.90;;;;;;5079620;28;20702;-78
2022/04/14 04:25:14;;;;;;;6.03;5.43;;;8.90;99.90;;;;;;5073025;28;20652;-78
2022/04/14 04:27:41;;;;;;;8.70;5.93;;;8.80;99.90;;;;;;5066572;28;20224;-78
2022/04/14 04:30:09;;;;;;;7.27;5.47;;;8.80;99.90;;;;;;5082107;28;20220;-78
2022/04/14 04:32:36;;;;;;;7.40;6.63;;;8.90;99.90;;;;;;5068967;28;20327;-78
2022/04/14 04:35:07;;;;;;;7.40;5.30;;;8.90;99.90;;;;;;5077218;28;20305;-78
2022/04/14 04:37:34;;;;;;;7.63;5.77;;;9.00;99.90;;;;;;5081718;28;20255;-78
2022/04/14 04:40:01;;;;;;;7.60;5.97;;;9.00;99.90;;;;;;5085603;28;20667;-78
2022/04/14 04:42:28;;;;;;;7.50;5.53;;;9.00;99.90;;;;;;5094422;28;20683;-78
2022/04/14 04:44:55;;;;;;;6.33;5.70;;;9.00;99.90;;;;;;5093978;28;20288;-78
2022/04/14 04:47:22;;;;;;;9.43;6.03;;;9.10;99.90;;;;;;5084276;28;20268;-78
2022/04/14 04:49:49;;;;;;;7.77;6.63;;;9.20;99.90;;;;;;5086027;28;20190;-77
2022/04/14 04:52:17;;;;;;;10.00;5.63;;;9.20;99.90;;;;;;5084751;28;20326;-77
2022/04/14 04:54:45;;;;;;;8.13;6.50;;;9.30;99.90;;;;;;5079002;28;20252;-78
2022/04/14 04:57:11;;;;;;;8.40;6.43;;;9.40;99.90;;;;;;5085860;28;20289;-78
2022/04/14 04:59:38;;;;;;;6.83;5.33;;;9.50;99.90;;;;;;5075660;28;20662;-78
2022/04/14 05:02:06;;;;;;;8.70;5.57;;;9.60;99.90;;;;;;5080158;28;20202;-78
2022/04/14 05:04:33;;;;;;;10.93;5.37;;;9.70;99.90;;;;;;5083331;28;20218;-78
2022/04/14 05:07:00;;;;;;;8.70;5.90;;;9.80;99.90;;;;;;5081683;28;20214;-78
2022/04/14 05:09:28;;;;;;;7.30;5.30;;;9.80;99.90;;;;;;5084584;28;20281;-78
2022/04/14 05:11:55;;;;;;;6.77;5.63;;;9.80;99.90;;;;;;5083152;28;20197;-78
2022/04/14 05:14:22;;;;;;;7.67;5.90;;;9.90;99.90;;;;;;5078796;28;20244;-78
2022/04/14 05:16:49;;;;;;;6.97;5.90;;;9.90;99.90;;;;;;5072996;28;20210;-78
2022/04/14 05:19:16;;;;;;;5.97;5.37;;;10.00;99.90;;;;;;5077255;28;20211;-78
2022/04/14 05:21:44;;;;;;;6.23;5.20;;;10.10;99.90;;;;;;5085217;28;20198;-78
2022/04/14 05:24:11;;;;;;;7.57;5.90;;;10.10;99.90;;;;;;5080514;28;20219;-78
2022/04/14 05:26:40;;;;;;;6.73;5.73;;;10.20;99.90;;;;;;5082927;28;20230;-78
2022/04/14 05:29:09;;;;;;;7.67;5.20;;;10.30;99.90;;;;;;5081574;28;20211;-78
2022/04/14 05:31:36;;;;;;;6.90;4.77;;;10.50;99.90;;;;;;5080415;28;20195;-78
2022/04/14 05:34:03;;;;;;;6.60;5.27;;;10.80;99.90;;;;;;5077830;28;20253;-78
2022/04/14 05:36:30;;;;;;;6.47;4.67;;;11.10;99.90;;;;;;5077221;28;20200;-78
2022/04/14 05:38:57;;;;;;;6.37;4.40;;;11.40;99.90;;;;;;5081370;28;20216;-78
2022/04/14 05:41:24;;;;;;;9.37;5.07;;;11.70;99.90;;;;;;5079588;28;20216;-78
2022/04/14 05:43:52;;;;;;;6.60;4.60;;;11.90;99.90;;;;;;5081050;28;20207;-78
2022/04/14 05:46:19;;;;;;;6.37;4.47;;;12.10;99.90;;;;;;5081976;28;20216;-78
2022/04/14 05:48:48;;;;;;;5.97;5.20;;;12.30;99.90;;;;;;5081187;28;20647;-78
2022/04/14 05:51:15;;;;;;;8.07;5.40;;;12.40;99.90;;;;;;5080508;28;20205;-78
2022/04/14 05:53:42;;;;;;;7.13;4.47;;;12.50;99.90;;;;;;5083640;28;20221;-78
2022/04/14 05:56:09;;;;;;;11.40;5.10;;;12.60;99.90;;;;;;5077262;28;20188;-78
2022/04/14 05:58:36;;;;;;;7.40;4.90;;;12.60;99.90;;;;;;5063607;28;20207;-78
2022/04/14 06:01:05;;;;;;;7.33;4.47;;;12.80;99.90;;;;;;5077381;28;20265;-78
2022/04/14 06:03:32;;;;;;;9.80;4.83;;;13.00;99.90;;;;;;5087298;28;21022;-78
2022/04/14 06:05:59;;;;;;;5.93;4.50;;;13.10;99.90;;;;;;5081120;28;20202;-78
2022/04/14 06:08:25;;;;;;;8.90;4.90;;;13.30;99.90;;;;;;5082900;28;20219;-78
2022/04/14 06:10:52;;;;;;;6.47;4.23;;;13.50;99.90;;;;;;5080679;28;20199;-78
2022/04/14 06:13:19;;;;;;;7.80;5.20;;;13.60;99.90;;;;;;5075650;28;20665;-78
2022/04/14 06:15:46;;;;;;;8.43;4.73;;;13.80;99.90;;;;;;5080807;28;20226;-79
2022/04/14 06:18:15;;;;;;;6.37;4.60;;;14.00;99.90;;;;;;5080411;28;20301;-78
2022/04/14 06:20:42;;;;;;;6.30;4.63;;;14.20;99.90;;;;;;5073016;28;20208;-78
2022/04/14 06:23:10;;;;;;;6.07;4.37;;;14.30;99.90;;;;;;5077207;28;20756;-78
2022/04/14 06:25:37;;;;;;;5.60;3.80;;;14.50;99.90;;;;;;5069127;28;20290;-78
2022/04/14 06:28:07;;;;;;;6.03;3.97;;;14.70;99.90;;;;;;5071934;28;20251;-78
2022/04/14 06:30:34;;;;;;;6.30;4.40;;;14.90;99.90;;;;;;5087294;28;20261;-78
2022/04/14 06:33:03;;;;;;;8.00;4.70;;;15.10;99.90;;;;;;5080543;28;20224;-78
2022/04/14 06:35:31;;;;;;;9.20;5.10;;;15.30;99.90;;;;;;5076593;28;20301;-78
2022/04/14 06:37:59;;;;;;;5.53;3.87;;;15.30;99.90;;;;;;5071335;28;20710;-78
2022/04/14 06:40:26;;;;;;;6.43;4.23;;;15.50;99.90;;;;;;5082371;28;20297;-78
2022/04/14 06:42:53;;;;;;;5.90;4.03;;;15.60;99.90;;;;;;5075801;28;20298;-78
2022/04/14 06:45:20;;;;;;;10.30;5.00;;;15.70;99.90;;;;;;5077103;28;20701;-78
2022/04/14 06:47:47;;;;;;;9.77;4.87;;;15.70;99.90;;;;;;5079397;28;20215;-78
2022/04/14 06:50:14;;;;;;;7.30;5.07;;;15.80;99.90;;;;;;5080259;28;20594;-78
2022/04/14 06:52:42;;;;;;;8.67;5.10;;;15.80;99.90;;;;;;5083598;28;20197;-78
2022/04/14 06:55:10;;;;;;;8.50;5.47;;;15.70;99.90;;;;;;5083537;28;20288;-78
2022/04/14 06:57:37;;;;;;;9.37;5.70;;;15.90;99.90;;;;;;5091725;28;20201;-78
2022/04/14 07:00:05;;;;;;;9.43;6.83;;;16.00;99.90;;;;;;5091550;28;20189;-79
2022/04/14 07:02:32;;;;;;;10.27;6.23;;;16.30;99.90;;;;;;5091346;28;20225;-79
2022/04/14 07:04:59;;;;;;;9.07;5.73;;;16.50;99.90;;;;;;5091983;28;20201;-78
2022/04/14 07:07:26;;;;;;;9.00;6.50;;;16.80;99.90;;;;;;5086183;28;20263;-78
2022/04/14 07:09:54;;;;;;;10.83;6.53;;;17.00;99.90;;;;;;5069420;28;20204;-79
2022/04/14 07:12:21;;;;;;;9.43;6.50;;;17.20;99.90;;;;;;5081583;28;20202;-78
2022/04/14 07:14:48;;;;;;;11.63;6.13;;;17.40;99.90;;;;;;5075412;28;20297;-78
2022/04/14 07:17:16;;;;;;;10.03;6.40;;;17.50;99.90;;;;;;5077241;28;20203;-79
2022/04/14 07:19:44;;;;;;;8.93;7.40;;;17.90;99.90;;;;;;5082003;28;20267;-79
2022/04/14 07:22:11;;;;;;;10.77;7.53;;;18.20;99.90;;;;;;5081620;28;20202;-79
2022/04/14 07:24:38;;;;;;;11.70;6.87;;;18.60;99.90;;;;;;5074702;28;20226;-79
2022/04/14 07:27:07;;;;;;;10.83;7.80;;;19.00;99.90;;;;;;5076447;28;20220;-77
2022/04/14 07:29:34;;;;;;;7.63;6.10;;;19.20;99.90;;;;;;5075539;28;20218;-77
2022/04/14 07:32:00;;;;;;;12.73;8.53;;;19.60;99.90;;;;;;5075779;28;20296;-77
2022/04/14 07:34:27;;;;;;;9.57;8.10;;;19.70;99.90;;;;;;5082085;28;20233;-79
2022/04/14 07:36:54;;;;;;;10.07;8.10;;;20.10;99.90;;;;;;5080130;28;20202;-79
2022/04/14 07:39:21;;;;;;;14.03;9.20;;;20.50;99.90;;;;;;5088059;28;20650;-79
2022/04/14 07:41:48;;;;;;;13.67;9.23;;;20.60;99.90;;;;;;5072864;28;20228;-79
2022/04/14 07:44:17;;;;;;;11.40;9.33;;;20.80;99.90;;;;;;5071613;28;20221;-79
2022/04/14 07:46:44;;;;;;;13.30;8.83;;;21.10;99.90;;;;;;5079091;28;20205;-79
2022/04/14 07:49:11;;;;;;;12.90;9.30;;;21.20;99.90;;;;;;5081893;28;20198;-80
2022/04/14 07:51:40;;;;;;;14.73;10.33;;;21.60;99.90;;;;;;5069784;28;20247;-80
2022/04/14 07:54:07;;;;;;;16.50;11.40;;;21.60;99.90;;;;;;5075815;28;20226;-79
2022/04/14 07:56:34;;;;;;;15.97;11.10;;;21.40;99.90;;;;;;5079249;28;20251;-79
2022/04/14 07:59:01;;;;;;;15.80;11.13;;;21.40;99.90;;;;;;5078765;28;20273;-79
2022/04/14 08:01:30;;;;;;;15.27;11.27;;;21.50;99.90;;;;;;5080583;28;20668;-79
2022/04/14 08:03:57;;;;;;;19.30;12.60;;;21.60;99.90;;;;;;5078746;28;20310;-79
2022/04/14 08:06:25;;;;;;;16.50;11.87;;;21.50;99.90;;;;;;5079401;28;20213;-79
2022/04/14 08:08:52;;;;;;;12.87;10.77;;;21.40;99.90;;;;;;5078512;28;20279;-79
2022/04/14 08:11:19;;;;;;;17.23;11.63;;;21.70;99.90;;;;;;5082665;28;20200;-79
2022/04/14 08:13:46;;;;;;;15.47;10.70;;;21.60;99.90;;;;;;5079287;28;20224;-79
2022/04/14 08:16:13;;;;;;;20.10;13.77;;;21.70;99.90;;;;;;5079760;28;20303;-79
2022/04/14 08:18:41;;;;;;;13.10;10.23;;;21.90;99.90;;;;;;5083040;28;20289;-79
2022/04/14 08:21:09;;;;;;;14.67;11.63;;;22.10;99.90;;;;;;5082420;28;20289;-79
2022/04/14 08:23:39;;;;;;;17.37;10.53;;;22.10;99.90;;;;;;5086068;28;20228;-79
2022/04/14 08:26:08;;;;;;;14.90;11.40;;;22.20;99.90;;;;;;5078583;28;20194;-79
2022/04/14 08:28:35;;;;;;;18.63;11.70;;;21.80;99.90;;;;;;5084411;28;20213;-79
2022/04/14 08:31:03;;;;;;;14.77;12.53;;;21.80;99.90;;;;;;5081740;28;20232;-79
2022/04/14 08:33:30;;;;;;;16.27;13.60;;;21.50;99.90;;;;;;5077385;28;20253;-79
2022/04/14 08:36:00;;;;;;;16.03;12.93;;;21.30;99.90;;;;;;5086266;28;20598;-79
2022/04/14 08:38:27;;;;;;;14.73;13.13;;;21.30;99.90;;;;;;5081045;28;20198;-79
2022/04/14 08:41:04;;;;;;;12.90;10.47;;;21.50;99.90;;;;;;5081422;28;20202;-79
2022/04/14 08:43:34;;;;;;;13.20;11.90;;;21.80;99.90;;;;;;5082168;28;20217;-79
2022/04/14 08:46:02;;;;;;;15.47;13.83;;;21.80;99.90;;;;;;5082019;28;20183;-79
2022/04/14 08:48:29;;;;;;;15.60;12.60;;;21.60;99.90;;;;;;5084405;28;20219;-81
2022/04/14 08:50:59;;;;;;;17.03;13.30;;;21.80;99.90;;;;;;5087490;28;20248;-79
2022/04/14 08:53:27;;;;;;;16.57;11.00;;;21.90;99.90;;;;;;5083565;28;20634;-79
2022/04/14 08:55:56;;;;;;;14.33;12.33;;;22.20;99.90;;;;;;5087868;28;20205;-81
2022/04/14 08:58:26;;;;;;;15.47;11.30;;;22.50;99.90;;;;;;5082198;28;20218;-79
2022/04/14 09:00:55;;;;;;;17.17;11.33;;;22.70;99.90;;;;;;5081987;28;20195;-79
2022/04/14 09:03:25;;;;;;;15.17;9.57;;;22.60;99.90;;;;;;5084222;28;20590;-79
2022/04/14 09:05:52;;;;;;;14.40;9.50;;;23.10;99.90;;;;;;5079637;28;20293;-79
2022/04/14 09:08:21;;;;;;;12.03;8.83;;;23.20;99.90;;;;;;5082505;28;20218;-79
2022/04/14 09:10:50;;;;;;;16.20;12.23;;;23.30;99.90;;;;;;5093553;28;20190;-79
2022/04/14 09:13:18;;;;;;;13.83;9.90;;;22.90;99.90;;;;;;5093276;28;20210;-79
2022/04/14 09:15:45;;;;;;;14.77;10.10;;;23.00;99.90;;;;;;5093940;28;20251;-79
2022/04/14 09:18:12;;;;;;;12.60;9.53;;;22.80;99.90;;;;;;5087827;28;20221;-80
2022/04/14 09:20:41;;;;;;;16.17;9.03;;;23.10;99.90;;;;;;5081853;28;20659;-79
2022/04/14 09:23:28;;;;;;;12.17;9.37;;;23.30;99.90;;;;;;5082495;28;20229;-79
2022/04/14 09:26:11;;;;;;;12.60;7.47;;;23.50;99.90;;;;;;5092616;28;20210;-79
2022/04/14 09:28:40;;;;;;;12.07;7.60;;;23.50;99.90;;;;;;5081395;28;20209;-79
2022/04/14 09:31:09;;;;;;;9.57;6.37;;;23.80;99.90;;;;;;5081230;28;20199;-80
2022/04/14 09:33:37;;;;;;;13.73;8.03;;;24.00;99.90;;;;;;5081468;28;20230;-80
2022/04/14 09:36:09;;;;;;;12.93;8.97;;;24.10;99.90;;;;;;5076498;28;20197;-80
2022/04/14 09:38:58;;;;;;;13.23;7.47;;;23.50;99.90;;;;;;5085009;28;20220;-80
2022/04/14 09:41:34;;;;;;;13.03;7.87;;;23.90;99.90;;;;;;5082815;28;20194;-80
2022/04/14 09:44:04;;;;;;;11.97;8.33;;;24.00;99.90;;;;;;5081422;28;20245;-80
2022/04/14 09:46:31;;;;;;;10.70;7.50;;;24.30;99.90;;;;;;5084292;28;20226;-80
2022/04/14 09:49:08;;;;;;;12.17;8.20;;;24.40;99.90;;;;;;5081068;28;20209;-80
2022/04/14 09:51:36;;;;;;;13.70;9.30;;;24.30;99.90;;;;;;5076831;28;20205;-80
2022/04/14 09:54:12;;;;;;;10.17;7.70;;;24.20;99.90;;;;;;5084480;28;20296;-80
2022/04/14 09:56:44;;;;;;;11.63;7.90;;;23.90;99.90;;;;;;5066031;28;20201;-81
2022/04/14 09:59:13;;;;;;;11.43;8.60;;;23.90;99.90;;;;;;5078042;28;20210;-80
2022/04/14 10:01:40;;;;;;;10.60;8.47;;;24.00;99.90;;;;;;5080497;28;20199;-79
2022/04/14 10:04:07;;;;;;;9.30;6.90;;;23.80;99.90;;;;;;5081094;28;20210;-79
2022/04/14 10:06:34;;;;;;;16.67;10.20;;;23.70;99.90;;;;;;5085012;28;20194;-80
2022/04/14 10:09:02;;;;;;;14.07;10.27;;;23.30;99.90;;;;;;5083239;28;20233;-81
2022/04/14 10:11:34;;;;;;;10.03;6.87;;;23.10;99.90;;;;;;5083622;28;20193;-80
2022/04/14 10:14:12;;;;;;;11.33;7.27;;;23.20;99.90;;;;;;5080697;28;20252;-79
2022/04/14 10:16:40;;;;;;;10.70;8.63;;;23.40;99.90;;;;;;5077652;28;20205;-80
2022/04/14 10:19:09;;;;;;;11.47;8.57;;;23.40;99.90;;;;;;5075436;28;20205;-80
2022/04/14 10:21:37;;;;;;;9.63;6.90;;;23.40;99.90;;;;;;5075782;28;20228;-80
2022/04/14 10:24:05;;;;;;;8.03;5.70;;;23.50;99.90;;;;;;5084471;28;20210;-79
2022/04/14 10:26:35;;;;;;;12.10;7.77;;;23.50;99.90;;;;;;5078827;28;20198;-79
2022/04/14 10:29:03;;;;;;;13.70;8.40;;;23.30;99.90;;;;;;5080175;28;20279;-79
2022/04/14 10:31:34;;;;;;;12.03;7.00;;;23.10;99.90;;;;;;5080775;28;20198;-79
2022/04/14 10:34:04;;;;;;;10.37;7.40;;;23.00;99.90;;;;;;5080766;28;20728;-79
2022/04/14 10:36:33;;;;;;;14.20;12.70;;;22.70;99.90;;;;;;5083148;28;20246;-79
2022/04/14 10:39:01;;;;;;;18.30;12.77;;;22.50;99.90;;;;;;5077932;28;20199;-79
2022/04/14 10:41:32;;;;;;;13.50;12.10;;;22.20;99.90;;;;;;5082477;28;20679;-81
2022/04/14 10:44:04;;;;;;;7.73;6.17;;;22.20;99.90;;;;;;5080979;28;20221;-79
2022/04/14 10:46:32;;;;;;;15.60;12.90;;;22.20;99.90;;;;;;5081254;28;20221;-79
2022/04/14 10:49:13;;;;;;;14.60;11.53;;;22.10;99.90;;;;;;5080083;28;20683;-79
2022/04/14 10:51:41;;;;;;;14.57;12.80;;;21.90;99.90;;;;;;5073787;28;20197;-80
2022/04/14 10:54:10;;;;;;;15.20;9.67;;;21.70;99.90;;;;;;5081696;28;20301;-80
2022/04/14 10:56:49;;;;;;;14.30;12.80;;;21.60;99.90;;;;;;5096889;28;20198;-79
2022/04/14 10:59:19;;;;;;;19.27;14.00;;;21.40;99.90;;;;;;5081774;28;20204;-80
2022/04/14 11:02:04;;;;;;;12.70;11.27;;;21.20;99.90;;;;;;5080698;28;20723;-80
2022/04/14 11:04:50;;;;;;;13.03;9.93;;;21.30;99.90;;;;;;5084324;28;20245;-80
2022/04/14 11:07:18;;;;;;;11.63;9.40;;;21.40;99.90;;;;;;5077167;28;20644;-80
2022/04/14 11:09:58;;;;;;;12.93;8.87;;;21.50;99.90;;;;;;5062014;28;20233;-79
2022/04/14 11:12:27;;;;;;;11.20;9.30;;;21.50;99.90;;;;;;5072402;28;20563;-79
2022/04/14 11:14:57;;;;;;;10.93;9.83;;;21.60;99.90;;;;;;5085398;28;20645;-79
2022/04/14 11:17:57;;;;;;;13.97;11.23;;;21.60;99.90;;;;;;5079412;28;20198;-80
2022/04/14 11:20:54;;;;;;;13.50;9.87;;;21.50;99.90;;;;;;5076174;28;20229;-80
2022/04/14 11:23:26;;;;;;;12.53;8.47;;;21.50;99.90;;;;;;5078554;28;20596;-80
2022/04/14 11:25:54;;;;;;;11.93;8.47;;;21.40;99.90;;;;;;5077086;28;20193;-79
2022/04/14 11:28:24;;;;;;;12.77;10.87;;;21.60;99.90;;;;;;5077617;28;20214;-79
2022/04/14 11:30:54;;;;;;;11.17;7.73;;;21.60;99.90;;;;;;5079081;28;20199;-79
2022/04/14 11:33:39;;;;;;;11.03;8.30;;;21.80;99.90;;;;;;5081650;28;20234;-80
2022/04/14 11:36:11;;;;;;;8.23;6.60;;;21.80;99.90;;;;;;5079536;28;20198;-80
2022/04/14 11:38:55;;;;;;;14.97;11.17;;;22.10;99.90;;;;;;5073591;28;20187;-79
2022/04/14 11:41:29;;;;;;;14.13;10.03;;;21.80;99.90;;;;;;5081597;28;20576;-79
2022/04/14 11:43:56;;;;;;;9.87;8.93;;;21.60;99.90;;;;;;5079852;28;20209;-80
2022/04/14 11:46:25;;;;;;;11.37;10.17;;;21.70;99.90;;;;;;5072309;28;20204;-80
2022/04/14 11:48:52;;;;;;;12.27;9.33;;;21.70;99.90;;;;;;5079533;28;20210;-80
2022/04/14 11:51:20;;;;;;;14.00;11.17;;;21.80;99.90;;;;;;5075107;28;20208;-79
2022/04/14 11:53:47;;;;;;;12.47;9.77;;;21.80;99.90;;;;;;5079980;28;20272;-79
2022/04/14 11:56:17;;;;;;;12.47;9.23;;;21.90;99.90;;;;;;5078946;28;20194;-79
2022/04/14 11:58:44;;;;;;;12.53;9.27;;;21.80;99.90;;;;;;5065831;28;20294;-80
2022/04/14 12:01:12;;;;;;;12.40;9.40;;;21.80;99.90;;;;;;5075678;28;20209;-81
2022/04/14 12:03:41;;;;;;;17.00;12.30;;;21.90;99.90;;;;;;5080201;28;20590;-80
2022/04/14 12:06:11;;;;;;;15.93;12.03;;;21.90;99.90;;;;;;5079260;28;20578;-79
2022/04/14 12:08:38;;;;;;;13.80;10.67;;;21.80;99.90;;;;;;5088681;28;20297;-79
2022/04/14 12:11:11;;;;;;;14.30;10.90;;;22.00;99.90;;;;;;5079252;28;20286;-79
2022/04/14 12:13:39;;;;;;;14.20;11.50;;;22.00;99.90;;;;;;5074256;28;20670;-81
2022/04/14 12:16:07;;;;;;;13.17;11.53;;;22.20;99.90;;;;;;5087768;28;20204;-80
2022/04/14 12:18:35;;;;;;;15.73;12.67;;;22.10;99.90;;;;;;5074916;28;20222;-81
2022/04/14 12:21:05;;;;;;;17.00;12.83;;;22.30;99.90;;;;;;5079377;28;20678;-79
2022/04/14 12:23:32;;;;;;;14.83;11.60;;;22.10;99.90;;;;;;5078969;28;20225;-79
2022/04/14 12:26:00;;;;;;;13.23;8.83;;;22.10;99.90;;;;;;5078693;28;20216;-80
2022/04/14 12:28:27;;;;;;;10.07;7.20;;;22.30;99.90;;;;;;5080695;28;21020;-80
2022/04/14 12:30:54;;;;;;;14.43;9.50;;;22.50;99.90;;;;;;5078924;28;20286;-79
2022/04/14 12:33:28;;;;;;;12.20;8.67;;;22.40;99.90;;;;;;5074967;28;20233;-79
2022/04/14 12:36:08;;;;;;;12.37;9.23;;;22.50;99.90;;;;;;5071995;28;20315;-79
2022/04/14 12:38:47;;;;;;;11.00;8.77;;;22.40;99.90;;;;;;5078846;28;20563;-79
2022/04/14 12:41:19;;;;;;;11.97;8.90;;;22.30;99.90;;;;;;5078219;28;20216;-80
2022/04/14 12:43:48;;;;;;;9.60;8.70;;;22.30;99.90;;;;;;5069891;28;20217;-80
2022/04/14 12:46:24;;;;;;;9.57;8.67;;;22.40;99.90;;;;;;5074043;28;20670;-80
2022/04/14 12:49:07;;;;;;;12.37;9.40;;;22.40;99.90;;;;;;5082266;28;20251;-79
2022/04/14 12:51:38;;;;;;;9.87;8.87;;;22.30;99.90;;;;;;5081668;28;20225;-79